createdAt,value
2023-06-29T00:00:07.481Z,95378.41
2023-06-29T00:02:56.228Z,95374.94
2023-06-29T00:05:24.453Z,95357.97
2023-06-29T00:07:52.635Z,95362.63
2023-06-29T00:10:20.686Z,95359.28
2023-06-29T00:12:49.086Z,95353.09
2023-06-29T00:15:17.051Z,95355.38
2023-06-29T00:17:48.944Z,95345.16
2023-06-29T00:20:17.378Z,95348.63
2023-06-29T00:22:49.414Z,95335.88
2023-06-29T00:25:18.774Z,95341.22
2023-06-29T00:27:48.232Z,95329.03
2023-06-29T00:30:17.163Z,95330.75
2023-06-29T00:32:45.651Z,95322.28
2023-06-29T00:35:14.943Z,95316.66
2023-06-29T00:37:45.895Z,95311.44
2023-06-29T00:40:14.462Z,95301.91
2023-06-29T00:42:43.941Z,95290.25
2023-06-29T00:45:12.305Z,95308.94
2023-06-29T00:47:43.568Z,95315.13
2023-06-29T00:50:15.597Z,95307.75
2023-06-29T00:52:47.470Z,95324.47
2023-06-29T00:55:16.691Z,95324.16
2023-06-29T01:00:35.513Z,95321.34
2023-06-29T01:03:10.918Z,95326.22
2023-06-29T01:05:43.525Z,95333.16
2023-06-29T01:08:23.900Z,95320.22
2023-06-29T01:10:52.569Z,95324.69
2023-06-29T01:13:22.771Z,95323.13
2023-06-29T01:15:53.594Z,95317.16
2023-06-29T01:18:25.420Z,95321.75
2023-06-29T01:20:54.905Z,95323.59
2023-06-29T01:23:35.985Z,95323.91
2023-06-29T01:26:07.193Z,95324.69
2023-06-29T01:28:39.784Z,95323.59
2023-06-29T01:31:13.101Z,95326.19
2023-06-29T01:33:42.222Z,95338.03
2023-06-29T01:36:39.442Z,95330.75
2023-06-29T01:39:13.955Z,95330.31
2023-06-29T01:41:44.202Z,95326.19
2023-06-29T01:44:18.877Z,95328.34
2023-06-29T01:46:49.253Z,95338.03
2023-06-29T01:49:17.612Z,95341.63
2023-06-29T01:51:48.806Z,95334.41
2023-06-29T01:54:17.250Z,95346.19
2023-06-29T01:56:45.105Z,95344.19
2023-06-29T01:59:13.873Z,95352.22
2023-06-29T02:01:41.978Z,95353.97
2023-06-29T02:04:10.520Z,95344.00
2023-06-29T02:06:38.447Z,95348.78
2023-06-29T02:09:07.323Z,95341.31
2023-06-29T02:11:39.708Z,95347.47
2023-06-29T02:14:08.272Z,95347.28
2023-06-29T02:16:36.469Z,95344.66
2023-06-29T02:19:05.019Z,95337.69
2023-06-29T02:21:34.801Z,95341.84
2023-06-29T02:24:05.466Z,95335.09
2023-06-29T02:26:33.583Z,95327.84
2023-06-29T02:29:01.962Z,95329.69
2023-06-29T02:31:29.929Z,95330.75
2023-06-29T02:34:00.744Z,95338.56
2023-06-29T02:36:29.569Z,95340.88
2023-06-29T02:38:58.202Z,95340.34
2023-06-29T02:41:26.572Z,95335.13
2023-06-29T02:43:55.061Z,95330.47
2023-06-29T02:46:23.309Z,95321.22
2023-06-29T02:48:52.245Z,95320.91
2023-06-29T02:51:20.612Z,95326.22
2023-06-29T02:53:49.052Z,95324.06
2023-06-29T02:56:17.266Z,95331.47
2023-06-29T02:58:45.595Z,95319.72
2023-06-29T03:01:21.181Z,95321.25
2023-06-29T03:03:49.850Z,95326.25
2023-06-29T03:06:21.672Z,95323.66
2023-06-29T03:08:50.005Z,95328.47
2023-06-29T03:11:18.338Z,95326.94
2023-06-29T03:13:47.959Z,95319.97
2023-06-29T03:16:16.321Z,95327.16
2023-06-29T03:18:44.745Z,95324.13
2023-06-29T03:21:18.936Z,95324.41
2023-06-29T03:23:48.277Z,95325.63
2023-06-29T03:26:16.220Z,95323.13
2023-06-29T03:28:45.768Z,95323.91
2023-06-29T03:31:13.868Z,95330.41
2023-06-29T03:33:43.276Z,95333.34
2023-06-29T03:36:12.914Z,95330.09
2023-06-29T03:38:42.440Z,95333.69
2023-06-29T03:41:10.484Z,95331.50
2023-06-29T03:43:39.016Z,95334.31
2023-06-29T03:46:06.992Z,95330.31
2023-06-29T03:48:35.473Z,95327.91
2023-06-29T03:51:04.967Z,95324.53
2023-06-29T03:53:33.376Z,95331.38
2023-06-29T03:56:01.372Z,95330.63
2023-06-29T03:58:29.709Z,95328.97
2023-06-29T04:00:57.961Z,95324.75
2023-06-29T04:03:26.476Z,95328.84
2023-06-29T04:05:54.836Z,95331.00
2023-06-29T04:08:23.248Z,95332.66
2023-06-29T04:10:52.232Z,95327.97
2023-06-29T04:13:20.827Z,95332.41
2023-06-29T04:15:48.860Z,95332.41
2023-06-29T04:18:17.111Z,95332.06
2023-06-29T04:20:45.740Z,95319.97
2023-06-29T04:23:16.440Z,95336.34
2023-06-29T04:25:45.638Z,95336.34
2023-06-29T04:28:14.242Z,95344.75
2023-06-29T04:30:43.017Z,95337.34
2023-06-29T04:33:12.113Z,95327.97
2023-06-29T04:35:46.078Z,95331.19
2023-06-29T04:38:15.047Z,95335.88
2023-06-29T04:40:43.914Z,95336.44
2023-06-29T04:43:14.118Z,95334.53
2023-06-29T04:45:42.667Z,95345.41
2023-06-29T04:48:11.895Z,95333.38
2023-06-29T04:50:39.772Z,95337.31
2023-06-29T04:53:11.440Z,95337.59
2023-06-29T04:55:39.868Z,95337.97
2023-06-29T04:58:08.517Z,95338.06
2023-06-29T05:00:36.805Z,95330.09
2023-06-29T05:03:05.277Z,95333.06
2023-06-29T05:05:33.392Z,95340.84
2023-06-29T05:08:01.720Z,95341.03
2023-06-29T05:10:30.055Z,95338.34
2023-06-29T05:12:58.293Z,95336.06
2023-06-29T05:15:26.426Z,95340.44
2023-06-29T05:17:54.937Z,95337.41
2023-06-29T05:20:23.882Z,95335.38
2023-06-29T05:22:54.992Z,95332.75
2023-06-29T05:25:24.391Z,95332.53
2023-06-29T05:27:52.845Z,95335.97
2023-06-29T05:30:20.932Z,95333.75
2023-06-29T05:32:49.485Z,95331.34
2023-06-29T05:35:17.414Z,95322.66
2023-06-29T05:37:47.815Z,95318.91
2023-06-29T05:40:16.742Z,95319.34
2023-06-29T05:42:45.531Z,95320.03
2023-06-29T05:45:14.302Z,95318.53
2023-06-29T05:47:42.897Z,95320.09
2023-06-29T05:50:11.217Z,95310.50
2023-06-29T05:52:39.848Z,95314.44
2023-06-29T05:55:08.041Z,95312.34
2023-06-29T05:57:36.026Z,95317.09
2023-06-29T06:00:09.632Z,95317.28
2023-06-29T06:02:38.403Z,95313.66
2023-06-29T06:05:11.220Z,95315.38
2023-06-29T06:07:39.704Z,95311.84
2023-06-29T06:10:08.524Z,95305.78
2023-06-29T06:12:36.556Z,95310.69
2023-06-29T06:15:07.372Z,95298.38
2023-06-29T06:17:35.579Z,95291.75
2023-06-29T06:20:06.679Z,95298.56
2023-06-29T06:22:34.821Z,95285.47
2023-06-29T06:25:03.053Z,95298.56
2023-06-29T06:27:32.113Z,95292.84
2023-06-29T06:30:01.282Z,95289.84
2023-06-29T06:32:32.206Z,95281.13
2023-06-29T06:35:00.597Z,95272.41
2023-06-29T06:37:28.579Z,95281.50
2023-06-29T06:39:56.946Z,95279.81
2023-06-29T06:42:27.964Z,95272.38
2023-06-29T06:44:57.334Z,95267.03
2023-06-29T06:47:25.311Z,95265.13
2023-06-29T06:49:54.069Z,95262.75
2023-06-29T06:52:22.436Z,95256.69
2023-06-29T06:54:50.879Z,95265.03
2023-06-29T06:57:20.518Z,95252.16
2023-06-29T06:59:48.905Z,95262.94
2023-06-29T07:02:17.328Z,95253.06
2023-06-29T07:04:46.245Z,95243.03
2023-06-29T07:07:14.803Z,95249.28
2023-06-29T07:09:43.866Z,95245.31
2023-06-29T07:12:12.461Z,95247.38
2023-06-29T07:14:40.863Z,95249.88
2023-06-29T07:17:08.830Z,95247.38
2023-06-29T07:24:40.059Z,95234.69
2023-06-29T07:27:08.168Z,95235.84
2023-06-29T07:29:36.395Z,95228.78
2023-06-29T07:32:04.594Z,95227.69
2023-06-29T07:34:33.458Z,95230.69
2023-06-29T07:37:01.741Z,95224.44
2023-06-29T07:39:30.355Z,95225.38
2023-06-29T07:41:58.251Z,95225.41
2023-06-29T07:44:29.352Z,95231.81
2023-06-29T07:46:57.554Z,95230.69
2023-06-29T07:49:25.825Z,95222.75
2023-06-29T07:51:53.710Z,95219.72
2023-06-29T07:54:22.085Z,95225.06
2023-06-29T07:59:21.399Z,95217.63
2023-06-29T08:01:50.519Z,95212.88
2023-06-29T08:06:45.828Z,95213.66
2023-06-29T08:07:10.114Z,95210.81
2023-06-29T08:09:41.066Z,95217.25
2023-06-29T08:12:09.335Z,95208.34
2023-06-29T08:14:39.438Z,95198.53
2023-06-29T08:17:07.958Z,95202.84
2023-06-29T08:19:36.582Z,95196.25
2023-06-29T08:22:05.523Z,95194.69
2023-06-29T08:24:34.096Z,95202.66
2023-06-29T08:27:02.140Z,95191.28
2023-06-29T08:29:30.532Z,95188.59
2023-06-29T08:31:58.678Z,95178.34
2023-06-29T08:34:27.104Z,95182.16
2023-06-29T08:36:55.196Z,95171.91
2023-06-29T08:39:42.200Z,95177.47
2023-06-29T08:42:10.414Z,95167.78
2023-06-29T08:44:39.207Z,95165.50
2023-06-29T08:47:08.220Z,95158.13
2023-06-29T08:49:37.110Z,95155.66
2023-06-29T08:52:06.490Z,95152.28
2023-06-29T08:54:36.567Z,95153.38
2023-06-29T08:57:06.519Z,95147.69
2023-06-29T08:59:35.820Z,95141.78
2023-06-29T09:02:06.502Z,95139.09
2023-06-29T09:04:36.057Z,95141.03
2023-06-29T09:07:07.706Z,95141.00
2023-06-29T09:09:36.208Z,95132.66
2023-06-29T09:12:07.759Z,95122.03
2023-06-29T09:14:39.803Z,95123.72
2023-06-29T09:17:14.023Z,95114.41
2023-06-29T09:19:52.104Z,95100.16
2023-06-29T09:22:21.138Z,95118.84
2023-06-29T09:25:01.859Z,95113.03
2023-06-29T09:27:35.198Z,95106.00
2023-06-29T09:30:05.986Z,95111.31
2023-06-29T09:32:39.972Z,95107.34
2023-06-29T09:35:10.181Z,95098.97
2023-06-29T09:37:38.485Z,95098.53
2023-06-29T09:40:19.667Z,95070.38
2023-06-29T09:42:47.859Z,95091.13
2023-06-29T09:45:16.768Z,95095.13
2023-06-29T09:50:25.530Z,95083.38
2023-06-29T09:52:55.627Z,95076.63
2023-06-29T09:55:31.548Z,95083.22
2023-06-29T09:58:00.293Z,95079.44
2023-06-29T10:00:29.387Z,95083.06
2023-06-29T10:02:57.737Z,95076.31
2023-06-29T10:05:26.363Z,95076.13
2023-06-29T10:07:54.660Z,95066.06
2023-06-29T10:10:24.981Z,95070.94
2023-06-29T10:12:56.950Z,95058.41
2023-06-29T10:16:10.135Z,95045.38
2023-06-29T10:19:29.828Z,95047.28
2023-06-29T10:22:06.902Z,95041.41
2023-06-29T10:24:48.214Z,95041.94
2023-06-29T10:27:21.322Z,95039.53
2023-06-29T10:29:53.614Z,95028.97
2023-06-29T10:32:37.037Z,95026.69
2023-06-29T10:35:07.219Z,95026.34
2023-06-29T10:37:42.850Z,95024.06
2023-06-29T10:40:20.939Z,95021.41
2023-06-29T10:42:56.747Z,95021.09
2023-06-29T10:45:24.865Z,95013.06
2023-06-29T10:47:59.308Z,95013.63
2023-06-29T10:50:31.850Z,95012.13
2023-06-29T10:53:01.605Z,95013.31
2023-06-29T10:55:40.066Z,95006.09
2023-06-29T10:58:15.611Z,95019.78
2023-06-29T11:00:44.282Z,95021.53
2023-06-29T11:03:13.979Z,95012.84
2023-06-29T11:05:42.464Z,95022.63
2023-06-29T11:08:10.983Z,95023.03
2023-06-29T11:10:39.110Z,95015.44
2023-06-29T11:13:11.527Z,95016.94
2023-06-29T11:15:40.331Z,95006.66
2023-06-29T11:18:10.533Z,95005.66
2023-06-29T11:20:40.888Z,95012.28
2023-06-29T11:23:09.593Z,95005.25
2023-06-29T11:25:40.436Z,95007.50
2023-06-29T11:28:09.244Z,95005.84
2023-06-29T11:30:41.258Z,95008.94
2023-06-29T11:36:02.319Z,95014.63
2023-06-29T11:38:31.120Z,95014.94
2023-06-29T11:41:06.835Z,94998.44
2023-06-29T11:43:35.445Z,94994.59
2023-06-29T11:46:04.175Z,94986.25
2023-06-29T11:48:32.617Z,94988.66
2023-06-29T11:51:01.629Z,94981.28
2023-06-29T11:53:30.808Z,94967.63
2023-06-29T11:55:59.281Z,94959.00
2023-06-29T11:58:35.397Z,94953.38
2023-06-29T12:01:04.041Z,94958.25
2023-06-29T12:03:32.495Z,94966.28
2023-06-29T12:06:02.643Z,94971.47
2023-06-29T12:08:41.055Z,94980.19
2023-06-29T12:11:22.679Z,94978.00
2023-06-29T12:14:02.340Z,94968.47
2023-06-29T12:19:11.569Z,94949.88
2023-06-29T12:21:40.752Z,94938.97
2023-06-29T12:24:09.914Z,94932.25
2023-06-29T12:26:38.059Z,94930.75
2023-06-29T12:29:06.647Z,94931.44
2023-06-29T12:31:35.308Z,94929.28
2023-06-29T12:34:03.875Z,94936.22
2023-06-29T12:36:31.944Z,94945.75
2023-06-29T12:39:00.424Z,94934.28
2023-06-29T12:41:29.664Z,94938.13
2023-06-29T12:43:58.063Z,94933.94
2023-06-29T12:46:28.714Z,94924.66
2023-06-29T12:48:57.257Z,94909.63
2023-06-29T12:51:25.736Z,94920.28
2023-06-29T12:53:54.868Z,94919.53
2023-06-29T12:56:23.004Z,94929.44
2023-06-29T12:58:51.606Z,94935.97
2023-06-29T13:01:19.663Z,94920.03
2023-06-29T13:03:48.269Z,94912.31
2023-06-29T13:06:16.544Z,94913.91
2023-06-29T13:08:44.984Z,94915.31
2023-06-29T13:11:13.612Z,94920.72
2023-06-29T13:13:42.305Z,94927.34
2023-06-29T13:16:10.793Z,94926.72
2023-06-29T13:18:39.555Z,94920.94
2023-06-29T13:21:07.693Z,94913.59
2023-06-29T13:23:37.024Z,94906.47
2023-06-29T13:26:05.200Z,94920.09
2023-06-29T13:28:34.406Z,94928.41
2023-06-29T13:31:02.701Z,94922.56
2023-06-29T13:33:31.258Z,94921.63
2023-06-29T13:36:01.350Z,94924.63
2023-06-29T13:38:29.952Z,94922.38
2023-06-29T13:40:58.029Z,94928.13
2023-06-29T13:43:26.401Z,94919.00
2023-06-29T13:45:55.578Z,94906.75
2023-06-29T13:48:24.010Z,94903.19
2023-06-29T13:50:53.341Z,94905.88
2023-06-29T13:53:25.592Z,94918.03
2023-06-29T13:55:53.842Z,94922.78
2023-06-29T13:58:29.083Z,94922.63
2023-06-29T14:00:57.316Z,94923.63
2023-06-29T14:03:25.952Z,94920.94
2023-06-29T14:05:53.989Z,94932.59
2023-06-29T14:08:23.667Z,94928.13
2023-06-29T14:10:53.659Z,94920.56
2023-06-29T14:13:21.896Z,94915.28
2023-06-29T14:15:49.864Z,94919.06
2023-06-29T14:18:18.377Z,94915.53
2023-06-29T14:20:46.841Z,94914.25
2023-06-29T14:23:15.110Z,94914.06
2023-06-29T14:25:43.535Z,94911.22
2023-06-29T14:28:12.386Z,94913.91
2023-06-29T14:30:40.275Z,94922.59
2023-06-29T14:33:19.587Z,94911.06
2023-06-29T14:35:52.487Z,94915.41
2023-06-29T14:38:20.939Z,94922.28
2023-06-29T14:40:50.174Z,94916.97
2023-06-29T14:43:19.444Z,94927.22
2023-06-29T14:45:47.904Z,94917.94
2023-06-29T14:48:17.566Z,94926.47
2023-06-29T14:50:46.650Z,94924.22
2023-06-29T14:53:16.784Z,94928.97
2023-06-29T14:55:46.486Z,94926.13
2023-06-29T14:58:16.358Z,94925.75
2023-06-29T15:00:44.690Z,94929.19
2023-06-29T15:03:13.303Z,94924.66
2023-06-29T15:05:41.733Z,94921.06
2023-06-29T15:08:09.978Z,94906.13
2023-06-29T15:10:37.801Z,94916.00
2023-06-29T15:13:06.094Z,94922.66
2023-06-29T15:15:34.054Z,94916.81
2023-06-29T15:18:05.587Z,94915.28
2023-06-29T15:20:33.676Z,94916.66
2023-06-29T15:23:04.931Z,94919.50
2023-06-29T15:25:33.222Z,94918.41
2023-06-29T15:28:02.801Z,94921.88
2023-06-29T15:30:47.181Z,94923.59
2023-06-29T15:33:20.553Z,94926.78
2023-06-29T15:35:52.247Z,94924.53
2023-06-29T15:38:21.613Z,94917.56
2023-06-29T15:40:51.355Z,94926.09
2023-06-29T15:43:19.808Z,94920.03
2023-06-29T15:45:48.021Z,94923.84
2023-06-29T15:48:16.797Z,94932.19
2023-06-29T15:50:45.357Z,94925.03
2023-06-29T15:53:14.629Z,94933.38
2023-06-29T15:55:42.939Z,94932.22
2023-06-29T15:58:11.404Z,94931.88
2023-06-29T16:00:40.077Z,94928.50
2023-06-29T16:03:08.614Z,94944.59
2023-06-29T16:05:36.845Z,94938.16
2023-06-29T16:08:05.582Z,94942.88
2023-06-29T16:10:34.101Z,94943.28
2023-06-29T16:13:02.306Z,94946.50
2023-06-29T16:15:30.851Z,94948.22
2023-06-29T16:17:59.491Z,94957.09
2023-06-29T16:20:28.042Z,94960.13
2023-06-29T16:23:00.108Z,94952.00
2023-06-29T16:25:28.287Z,94951.81
2023-06-29T16:27:56.758Z,94952.38
2023-06-29T16:30:25.610Z,94963.34
2023-06-29T16:32:54.318Z,94960.72
2023-06-29T16:35:22.323Z,94960.53
2023-06-29T16:37:50.736Z,94963.19
2023-06-29T16:40:19.374Z,94966.41
2023-06-29T16:42:48.026Z,94966.00
2023-06-29T16:45:16.363Z,94959.59
2023-06-29T16:47:44.831Z,94965.44
2023-06-29T16:50:12.943Z,94975.28
2023-06-29T16:52:41.294Z,94980.00
2023-06-29T16:55:09.887Z,94983.03
2023-06-29T16:57:38.471Z,94985.09
2023-06-29T17:00:08.176Z,94989.44
2023-06-29T17:02:36.731Z,94996.59
2023-06-29T17:05:05.324Z,95003.41
2023-06-29T17:07:33.829Z,95010.59
2023-06-29T17:10:02.938Z,95009.81
2023-06-29T17:12:34.181Z,95006.41
2023-06-29T17:15:02.237Z,95004.91
2023-06-29T17:17:34.577Z,95001.69
2023-06-29T17:20:04.210Z,95006.59
2023-06-29T17:22:34.467Z,95015.88
2023-06-29T17:25:04.485Z,95021.38
2023-06-29T17:27:34.397Z,95025.69
2023-06-29T17:30:02.803Z,95029.25
2023-06-29T17:32:35.486Z,95029.09
2023-06-29T17:35:03.598Z,95040.78
2023-06-29T17:37:32.876Z,95039.47
2023-06-29T17:40:00.925Z,95037.78
2023-06-29T17:42:30.034Z,95047.75
2023-06-29T17:45:06.698Z,95053.97
2023-06-29T17:47:36.299Z,95050.41
2023-06-29T17:50:07.043Z,95060.00
2023-06-29T17:52:36.941Z,95049.22
2023-06-29T17:55:06.214Z,95056.63
2023-06-29T17:57:35.697Z,95059.28
2023-06-29T18:00:06.873Z,95057.00
2023-06-29T18:02:37.739Z,95057.56
2023-06-29T18:05:07.415Z,95053.94
2023-06-29T18:07:36.203Z,95059.25
2023-06-29T18:10:09.406Z,95054.91
2023-06-29T18:12:39.361Z,95057.50
2023-06-29T18:15:08.206Z,95058.28
2023-06-29T18:17:39.201Z,95064.13
2023-06-29T18:20:08.131Z,95058.47
2023-06-29T18:22:37.019Z,95061.66
2023-06-29T18:25:05.733Z,95061.47
2023-06-29T18:27:35.254Z,95065.06
2023-06-29T18:30:03.297Z,95067.66
2023-06-29T18:32:34.803Z,95070.50
2023-06-29T18:35:05.332Z,95078.81
2023-06-29T18:37:34.239Z,95070.09
2023-06-29T18:40:02.282Z,95075.91
2023-06-29T18:42:32.958Z,95081.03
2023-06-29T18:45:02.058Z,95082.13
2023-06-29T18:47:33.838Z,95087.22
2023-06-29T18:50:05.167Z,95103.72
2023-06-29T18:52:34.062Z,95108.75
2023-06-29T18:55:02.567Z,95106.09
2023-06-29T18:57:34.796Z,95105.50
2023-06-29T19:00:02.873Z,95103.22
2023-06-29T19:02:39.057Z,95100.59
2023-06-29T19:05:07.457Z,95101.50
2023-06-29T19:07:59.916Z,95104.34
2023-06-29T19:10:30.528Z,95105.31
2023-06-29T19:12:59.050Z,95120.38
2023-06-29T19:15:29.653Z,95115.22
2023-06-29T19:18:00.175Z,95123.09
2023-06-29T19:20:28.363Z,95118.56
2023-06-29T19:22:57.096Z,95124.22
2023-06-29T19:25:25.377Z,95140.28
2023-06-29T19:27:54.369Z,95144.78
2023-06-29T19:30:23.376Z,95132.56
2023-06-29T19:32:51.736Z,95136.03
2023-06-29T19:35:20.858Z,95134.00
2023-06-29T19:37:52.637Z,95139.66
2023-06-29T19:40:21.251Z,95143.63
2023-06-29T19:42:51.074Z,95138.50
2023-06-29T19:45:20.351Z,95141.06
2023-06-29T19:47:49.187Z,95125.06
2023-06-29T19:50:18.008Z,95105.25
2023-06-29T19:52:47.680Z,95107.09
2023-06-29T19:55:15.695Z,95111.03
2023-06-29T19:57:44.027Z,95115.09
2023-06-29T20:00:13.254Z,95110.00
2023-06-29T20:02:54.121Z,95111.31
2023-06-29T20:05:24.717Z,95102.00
2023-06-29T20:07:53.690Z,95092.41
2023-06-29T20:10:22.184Z,95101.13
2023-06-29T20:12:50.605Z,95100.41
2023-06-29T20:15:18.803Z,95109.97
2023-06-29T20:17:47.218Z,95101.75
2023-06-29T20:20:18.550Z,95104.47
2023-06-29T20:22:48.338Z,95103.94
2023-06-29T20:25:16.302Z,95100.47
2023-06-29T20:27:45.987Z,95111.97
2023-06-29T20:30:14.174Z,95101.56
2023-06-29T20:32:42.513Z,95102.19
2023-06-29T20:35:10.642Z,95109.59
2023-06-29T20:37:39.374Z,95115.91
2023-06-29T20:40:08.106Z,95116.31
2023-06-29T20:42:39.315Z,95108.47
2023-06-29T20:45:12.799Z,95099.78
2023-06-29T20:47:42.662Z,95105.53
2023-06-29T20:50:11.531Z,95109.56
2023-06-29T20:52:40.775Z,95107.84
2023-06-29T20:55:10.906Z,95105.44
2023-06-29T20:57:39.810Z,95108.69
2023-06-29T21:00:11.315Z,95097.84
2023-06-29T21:02:41.111Z,95111.06
2023-06-29T21:05:10.516Z,95095.03
2023-06-29T21:07:39.389Z,95095.50
2023-06-29T21:10:08.761Z,95094.19
2023-06-29T21:12:38.729Z,95089.19
2023-06-29T21:15:08.738Z,95084.38
2023-06-29T21:17:38.544Z,95086.66
2023-06-29T21:20:09.824Z,95089.59
2023-06-29T21:22:41.534Z,95089.28
2023-06-29T21:25:11.822Z,95086.03
2023-06-29T21:27:42.210Z,95088.50
2023-06-29T21:30:13.808Z,95092.00
2023-06-29T21:32:43.274Z,95083.28
2023-06-29T21:35:12.792Z,95085.91
2023-06-29T21:37:42.316Z,95081.56
2023-06-29T21:40:12.003Z,95076.00
2023-06-29T21:42:40.429Z,95073.31
2023-06-29T21:45:08.877Z,95078.56
2023-06-29T21:47:37.292Z,95080.25
2023-06-29T21:50:05.821Z,95082.84
2023-06-29T21:52:34.435Z,95077.75
2023-06-29T21:55:02.798Z,95087.75
2023-06-29T21:57:33.066Z,95084.81
2023-06-29T22:00:00.954Z,95081.13
2023-06-29T22:02:32.591Z,95080.34
2023-06-29T22:05:00.471Z,95081.31
2023-06-29T22:07:29.157Z,95076.47
2023-06-29T22:09:57.117Z,95064.19
2023-06-29T22:12:26.561Z,95076.47
2023-06-29T22:14:55.226Z,95071.56
2023-06-29T22:17:24.187Z,95072.88
2023-06-29T22:20:18.417Z,95086.66
2023-06-29T22:22:47.276Z,95080.03
2023-06-29T22:25:15.254Z,95081.00
2023-06-29T22:27:43.537Z,95071.56
2023-06-29T22:30:11.869Z,95076.47
2023-06-29T22:32:41.580Z,95065.50
2023-06-29T22:35:10.163Z,95073.72
2023-06-29T22:37:39.045Z,95069.97
2023-06-29T22:40:07.810Z,95074.16
2023-06-29T22:42:36.126Z,95068.66
2023-06-29T22:45:04.322Z,95070.69
2023-06-29T22:47:33.577Z,95066.16
2023-06-29T22:50:02.179Z,95069.72
2023-06-29T22:52:32.552Z,95060.94
2023-06-29T22:55:00.538Z,95069.97
2023-06-29T22:57:28.913Z,95069.72
2023-06-29T22:59:57.089Z,95061.69
2023-06-29T23:02:25.844Z,95068.97
2023-06-29T23:04:54.438Z,95068.00
2023-06-29T23:07:23.712Z,95062.53
2023-06-29T23:09:53.256Z,95064.50
2023-06-29T23:12:22.519Z,95058.34
2023-06-29T23:14:52.755Z,95065.91
2023-06-29T23:17:23.864Z,95062.88
2023-06-29T23:19:52.252Z,95060.28
2023-06-29T23:22:25.649Z,95058.22
2023-06-29T23:24:54.257Z,95060.94
2023-06-29T23:27:22.814Z,95060.72
2023-06-29T23:29:54.338Z,95060.94
2023-06-29T23:32:22.741Z,95065.06
2023-06-29T23:34:51.405Z,95053.75
2023-06-29T23:37:19.755Z,95056.59
2023-06-29T23:39:47.641Z,95050.41
2023-06-29T23:42:15.974Z,95056.47
2023-06-29T23:44:44.208Z,95056.34
2023-06-29T23:47:14.250Z,95047.91
2023-06-29T23:49:43.366Z,95046.94
2023-06-29T23:52:11.862Z,95053.44
2023-06-29T23:54:40.084Z,95050.41
2023-06-29T23:57:08.395Z,95043.16
2023-06-29T23:59:36.387Z,95053.00
